createdAt,value
2023-03-30T00:01:20.102Z,2.8249999999999997
2023-03-30T00:04:19.248Z,2.0999999999999996
2023-03-30T00:07:17.867Z,2.2125000000000004
2023-03-30T00:11:18.380Z,2.225
2023-03-30T00:14:19.987Z,2.1375
2023-03-30T00:17:18.095Z,2.0625
2023-03-30T00:21:18.719Z,2.2
2023-03-30T00:24:16.843Z,1.5999999999999999
2023-03-30T00:27:16.734Z,0.975
2023-03-30T00:31:16.923Z,2.3
2023-03-30T00:34:17.356Z,1.275
2023-03-30T00:37:16.921Z,2.6625
2023-03-30T00:41:17.098Z,1.8375
2023-03-30T00:45:17.362Z,1.125
2023-03-30T00:47:18.316Z,1.75
2023-03-30T00:51:18.100Z,1.9625
2023-03-30T00:54:19.541Z,2.925
2023-03-30T00:57:19.392Z,2.3375000000000004
2023-03-30T01:01:17.549Z,3.15
2023-03-30T01:04:17.521Z,2.2875
2023-03-30T01:07:16.977Z,1.8125
2023-03-30T01:11:16.808Z,2.4000000000000004
2023-03-30T01:14:17.664Z,1.825
2023-03-30T01:17:27.579Z,1.5499999999999998
2023-03-30T01:21:56.528Z,1.5750000000000002
2023-03-30T01:25:43.575Z,1.6124999999999998
2023-03-30T01:27:33.568Z,1.625
2023-03-30T01:31:36.391Z,1.3125
2023-03-30T01:35:01.271Z,1.5125
2023-03-30T01:37:41.520Z,1.2375
2023-03-30T01:41:27.052Z,1.1875
2023-03-30T01:44:28.525Z,0.9875
2023-03-30T01:47:21.811Z,1.1875
2023-03-30T01:51:21.775Z,1.5375
2023-03-30T01:54:22.243Z,1.3624999999999998
2023-03-30T01:57:23.167Z,1.3375
2023-03-30T02:01:19.392Z,1.1
2023-03-30T02:04:21.949Z,1.2625
2023-03-30T02:07:21.952Z,0.8875
2023-03-30T02:11:17.015Z,1.4875
2023-03-30T02:14:19.421Z,1.1375
2023-03-30T02:17:21.556Z,1.8
2023-03-30T02:21:16.761Z,1.7
2023-03-30T02:24:23.657Z,1.2375
2023-03-30T02:27:17.331Z,1.6749999999999998
2023-03-30T02:31:17.426Z,1.75
2023-03-30T02:34:25.906Z,1.2875
2023-03-30T02:37:30.702Z,1.25
2023-03-30T02:41:33.004Z,1.3875
2023-03-30T02:44:25.450Z,1.375
2023-03-30T02:47:28.599Z,0.9124999999999999
2023-03-30T02:51:33.002Z,1.5
2023-03-30T02:54:28.618Z,1.175
2023-03-30T03:11:16.305Z,1.75
2023-03-30T03:14:16.723Z,1.1
2023-03-30T03:17:19.069Z,1.525
2023-03-30T03:21:16.461Z,1.325
2023-03-30T03:24:19.371Z,1.275
2023-03-30T03:27:16.803Z,1.6
2023-03-30T03:31:16.671Z,1.5125
2023-03-30T03:34:18.430Z,1.025
2023-03-30T03:37:16.971Z,1.4500000000000002
2023-03-30T03:41:16.423Z,1.8
2023-03-30T03:44:16.801Z,1.3
2023-03-30T03:47:17.284Z,0.9875
2023-03-30T03:51:16.433Z,1.65
2023-03-30T03:54:17.149Z,1.5499999999999998
2023-03-30T03:57:16.587Z,1.0625
2023-03-30T04:01:16.337Z,1.6625
2023-03-30T04:04:17.165Z,1.5875
2023-03-30T04:07:17.086Z,2
2023-03-30T04:11:16.646Z,1.625
2023-03-30T04:14:16.963Z,1.4375
2023-03-30T04:21:18.053Z,1.45
2023-03-30T04:24:16.686Z,2.4124999999999996
2023-03-30T04:27:17.423Z,1.3125
2023-03-30T04:31:17.105Z,1.65
2023-03-30T04:34:22.159Z,1.4
2023-03-30T04:37:18.916Z,0.85
2023-03-30T04:41:17.633Z,1.6
2023-03-30T04:44:22.757Z,0.875
2023-03-30T05:01:17.276Z,1.6749999999999998
2023-03-30T05:04:17.896Z,1.45
2023-03-30T05:11:16.506Z,1.0999999999999999
2023-03-30T05:14:16.991Z,1.525
2023-03-30T05:17:16.976Z,1.325
2023-03-30T05:21:16.278Z,1.3250000000000002
2023-03-30T05:24:16.589Z,1.2999999999999998
2023-03-30T05:27:16.504Z,1.5875
2023-03-30T05:31:18.140Z,1.2625000000000002
2023-03-30T05:34:17.574Z,2
2023-03-30T05:37:17.367Z,1.3250000000000002
2023-03-30T05:41:17.725Z,0.9375
2023-03-30T05:44:17.364Z,1.05
2023-03-30T06:01:16.404Z,1.4
2023-03-30T06:04:16.857Z,1.1375
2023-03-30T06:07:18.728Z,1.2125
2023-03-30T06:11:17.057Z,3.3375000000000004
2023-03-30T06:14:17.806Z,1.35
2023-03-30T06:17:17.444Z,1.0125
2023-03-30T06:21:17.538Z,2.075
2023-03-30T06:24:19.117Z,1.5999999999999999
2023-03-30T06:27:17.727Z,1.4375
2023-03-30T06:31:16.929Z,1.175
2023-03-30T06:34:17.224Z,1.5999999999999999
2023-03-30T06:37:17.676Z,1.1625
2023-03-30T06:41:16.846Z,1.1125
2023-03-30T06:44:16.952Z,0.95
2023-03-30T06:47:16.957Z,1.3625
2023-03-30T06:51:16.917Z,2.7624999999999997
2023-03-30T06:54:20.889Z,2.15
2023-03-30T06:57:17.250Z,1.95
2023-03-30T07:01:17.278Z,4.35
2023-03-30T07:04:17.684Z,4.4375
2023-03-30T07:07:18.445Z,5.5
2023-03-30T07:11:16.464Z,8.1
2023-03-30T07:14:16.704Z,10.25
2023-03-30T07:17:16.794Z,16.35
2023-03-30T07:21:17.625Z,9.525
2023-03-30T07:24:17.427Z,8.037500000000001
2023-03-30T07:27:18.116Z,7.625
2023-03-30T07:31:17.673Z,10.512500000000001
2023-03-30T07:34:17.383Z,6.387499999999999
2023-03-30T07:37:20.559Z,3.5999999999999996
2023-03-30T07:41:16.957Z,3.9125
2023-03-30T07:44:17.405Z,4.1625
2023-03-30T07:47:17.345Z,4.85
2023-03-30T07:51:16.976Z,6.800000000000001
2023-03-30T07:54:17.320Z,4.574999999999999
2023-03-30T07:57:17.474Z,4.824999999999999
2023-03-30T08:01:16.973Z,4.3
2023-03-30T08:11:16.782Z,1.6
2023-03-30T08:14:16.937Z,1.1125
2023-03-30T08:17:17.102Z,1.3125
2023-03-30T08:21:17.308Z,1.3
2023-03-30T08:24:17.399Z,1.65
2023-03-30T08:27:17.125Z,1.925
2023-03-30T08:31:18.760Z,2.0250000000000004
2023-03-30T08:34:16.452Z,1.625
2023-03-30T08:37:16.793Z,1.9125
2023-03-30T08:42:37.156Z,1.9625
2023-03-30T08:44:27.410Z,1.9500000000000002
2023-03-30T08:47:24.040Z,2.125
2023-03-30T08:51:22.688Z,3.125
2023-03-30T08:54:19.970Z,2.625
2023-03-30T08:57:30.061Z,2.1999999999999997
2023-03-30T09:01:22.127Z,2.5
2023-03-30T09:04:24.497Z,2.625
2023-03-30T09:07:21.032Z,2.7125000000000004
2023-03-30T09:11:26.601Z,2.65
2023-03-30T09:14:26.341Z,2.3
2023-03-30T09:17:21.979Z,2.8499999999999996
2023-03-30T09:21:20.488Z,2.4625
2023-03-30T09:24:24.404Z,2.5
2023-03-30T09:27:28.216Z,2.0875000000000004
2023-03-30T09:31:22.577Z,2.25
2023-03-30T09:34:24.593Z,2
2023-03-30T09:37:19.142Z,2.3375000000000004
2023-03-30T09:41:32.671Z,2.5125
2023-03-30T09:44:23.292Z,2.7
2023-03-30T09:47:32.249Z,3.1375
2023-03-30T09:51:20.566Z,5.5625
2023-03-30T09:54:17.897Z,3.5749999999999997
2023-03-30T09:57:27.478Z,2.1999999999999997
2023-03-30T10:01:19.057Z,2.9125
2023-03-30T10:04:18.821Z,3.5625
2023-03-30T10:07:21.212Z,2.8125
2023-03-30T10:11:21.061Z,2.9625
2023-03-30T10:14:28.900Z,2.225
2023-03-30T10:17:20.670Z,2.4875
2023-03-30T10:21:19.690Z,1.85
2023-03-30T10:24:21.374Z,2.3375
2023-03-30T10:27:17.418Z,2.0125
2023-03-30T10:31:16.789Z,2.3
2023-03-30T10:34:20.265Z,1.8375
2023-03-30T10:37:23.453Z,1.975
2023-03-30T10:41:21.861Z,1.8625000000000003
2023-03-30T10:44:22.699Z,1.6999999999999997
2023-03-30T10:47:43.435Z,1.3375
2023-03-30T10:51:30.336Z,2.3499999999999996
2023-03-30T10:54:24.848Z,1.475
2023-03-30T10:57:20.549Z,1.7625
2023-03-30T11:01:22.604Z,2.45
2023-03-30T11:04:23.906Z,1.5375
2023-03-30T11:07:33.076Z,2.0125
2023-03-30T11:11:21.990Z,1.9625
2023-03-30T11:14:23.806Z,2
2023-03-30T11:17:22.051Z,1.825
2023-03-30T11:21:24.056Z,2.05
2023-03-30T11:24:20.447Z,2
2023-03-30T11:27:24.570Z,1.575
2023-03-30T11:31:34.637Z,2.1
2023-03-30T11:34:30.551Z,1.7625
2023-03-30T11:37:22.270Z,1.7000000000000002
2023-03-30T11:41:23.042Z,1.3624999999999998
2023-03-30T11:44:17.913Z,2.2375000000000003
2023-03-30T11:47:40.945Z,1.6875
2023-03-30T11:51:34.086Z,1.5
2023-03-30T11:54:38.680Z,1.8624999999999998
2023-03-30T11:57:26.341Z,2.15
2023-03-30T12:01:34.338Z,1.7125
2023-03-30T12:04:25.871Z,1.525
2023-03-30T12:07:29.262Z,2.1500000000000004
2023-03-30T12:11:26.609Z,1.6124999999999998
2023-03-30T12:14:58.108Z,2.025
2023-03-30T12:17:28.570Z,1.6875
2023-03-30T12:21:27.960Z,1.725
2023-03-30T12:24:24.172Z,2.1625
2023-03-30T12:27:17.749Z,2.225
2023-03-30T12:31:18.429Z,1.8125
2023-03-30T12:34:19.200Z,1.9500000000000002
2023-03-30T12:37:22.127Z,2.3125
2023-03-30T12:41:17.899Z,2.0625
2023-03-30T12:44:30.193Z,2.1999999999999997
2023-03-30T12:47:32.615Z,1.4
2023-03-30T12:51:33.869Z,1.35
2023-03-30T12:54:38.278Z,1.7625000000000002
2023-03-30T12:57:30.859Z,1.7
2023-03-30T13:01:36.379Z,2.225
2023-03-30T13:04:23.696Z,1.725
2023-03-30T13:07:22.100Z,1.575
2023-03-30T13:11:18.494Z,2.5250000000000004
2023-03-30T13:14:27.106Z,2.1
2023-03-30T13:17:18.283Z,1.8
2023-03-30T13:21:20.637Z,1.75
2023-03-30T13:24:38.850Z,1.2375
2023-03-30T13:27:24.762Z,2.25
2023-03-30T13:31:39.496Z,1.5375
2023-03-30T13:34:30.587Z,1.5125000000000002
2023-03-30T13:37:26.528Z,1.525
2023-03-30T13:41:29.595Z,1.725
2023-03-30T13:44:35.075Z,1.1875
2023-03-30T13:47:59.630Z,1.2374999999999998
2023-03-30T13:51:22.429Z,1.8125
2023-03-30T13:54:24.234Z,1.3125
2023-03-30T13:57:22.497Z,1.475
2023-03-30T14:01:21.533Z,1.6875
2023-03-30T14:04:17.085Z,1.9
2023-03-30T14:07:19.935Z,1.2
2023-03-30T14:11:20.440Z,1.25
2023-03-30T14:14:21.628Z,2.0125
2023-03-30T14:17:20.316Z,1.2125
2023-03-30T14:21:19.701Z,1.4124999999999999
2023-03-30T14:24:26.455Z,1.3125
2023-03-30T14:27:17.261Z,0.825
2023-03-30T14:31:20.191Z,1.7125
2023-03-30T14:34:26.781Z,1.0375
2023-03-30T14:37:21.117Z,1.1625
2023-03-30T14:41:21.300Z,1.4375
2023-03-30T14:44:21.761Z,2.0625
2023-03-30T14:47:21.839Z,1.325
2023-03-30T14:51:32.984Z,1.65
2023-03-30T14:54:20.599Z,1.2125
2023-03-30T14:57:19.041Z,1.0125000000000002
2023-03-30T15:01:20.814Z,1.8625000000000003
2023-03-30T15:04:18.246Z,2.2249999999999996
2023-03-30T15:07:18.963Z,1.7125000000000001
2023-03-30T15:11:21.729Z,8.8125
2023-03-30T15:14:20.759Z,16.4375
2023-03-30T15:17:21.402Z,4.5
2023-03-30T15:21:18.445Z,1.625
2023-03-30T15:24:24.263Z,1.475
2023-03-30T15:27:17.673Z,2
2023-03-30T15:31:19.102Z,2.2875
2023-03-30T15:34:17.381Z,1.6375
2023-03-30T15:37:22.093Z,1.5625
2023-03-30T15:41:20.012Z,1.5375
2023-03-30T15:44:18.686Z,1.2125000000000001
2023-03-30T15:47:18.782Z,1.25
2023-03-30T15:51:21.779Z,1.5875
2023-03-30T15:54:21.790Z,1.675
2023-03-30T15:57:21.125Z,1.6375000000000002
2023-03-30T16:01:16.937Z,4.25
2023-03-30T16:04:21.304Z,2.1875
2023-03-30T16:07:18.680Z,1.9375
2023-03-30T16:11:17.494Z,1.3250000000000002
2023-03-30T16:14:19.454Z,1.125
2023-03-30T16:17:17.228Z,1.4625
2023-03-30T16:21:16.722Z,1.6375000000000002
2023-03-30T16:24:16.741Z,2.2375
2023-03-30T16:27:16.518Z,1.8250000000000002
2023-03-30T16:31:20.689Z,1.85
2023-03-30T16:34:17.719Z,2.425
2023-03-30T16:37:17.020Z,1.575
2023-03-30T16:41:20.209Z,1.725
2023-03-30T16:44:18.669Z,2.3499999999999996
2023-03-30T16:47:20.806Z,2.4250000000000003
2023-03-30T16:51:17.477Z,1.8
2023-03-30T16:54:29.450Z,1.525
2023-03-30T16:57:17.713Z,1.325
2023-03-30T17:01:19.001Z,5.875
2023-03-30T17:04:16.964Z,7.399999999999999
2023-03-30T17:07:17.625Z,5.2875000000000005
2023-03-30T17:11:17.070Z,1.7625000000000002
2023-03-30T17:14:17.278Z,1.8625
2023-03-30T17:17:16.843Z,1.7000000000000002
2023-03-30T17:21:16.952Z,2.45
2023-03-30T17:24:17.429Z,2.0749999999999997
2023-03-30T17:27:18.249Z,2.325
2023-03-30T17:31:19.039Z,2.825
2023-03-30T17:34:16.700Z,2.45
2023-03-30T17:37:16.932Z,3.25
2023-03-30T17:41:18.600Z,5.1125
2023-03-30T17:44:17.634Z,12.6125
2023-03-30T17:47:17.499Z,24.375
2023-03-30T17:51:16.875Z,5.6875
2023-03-30T17:54:17.092Z,4.9625
2023-03-30T18:01:17.319Z,5.8125
2023-03-30T18:11:16.490Z,4
2023-03-30T18:14:16.716Z,3.375
2023-03-30T18:17:17.401Z,3.2875
2023-03-30T18:21:16.972Z,4.3375
2023-03-30T18:24:17.322Z,3.7624999999999997
2023-03-30T18:27:17.265Z,4.225
2023-03-30T18:31:16.391Z,5.7125
2023-03-30T18:34:16.664Z,5.0625
2023-03-30T18:37:16.605Z,5.5125
2023-03-30T18:41:16.959Z,47.0125
2023-03-30T18:44:17.654Z,44.6
2023-03-30T18:47:17.374Z,25.625
2023-03-30T18:51:16.422Z,6.4375
2023-03-30T18:54:16.983Z,3.7375000000000003
2023-03-30T18:57:16.992Z,2.725
2023-03-30T19:01:16.919Z,3.7875
2023-03-30T19:04:17.293Z,5.4125
2023-03-30T19:07:17.655Z,4.075
2023-03-30T19:11:22.672Z,4.35
2023-03-30T19:14:17.828Z,3.9000000000000004
2023-03-30T19:17:16.800Z,5.699999999999999
2023-03-30T19:21:17.478Z,8.587499999999999
2023-03-30T19:24:16.905Z,4.137499999999999
2023-03-30T19:27:16.837Z,4.0875
2023-03-30T19:31:17.818Z,6.112499999999999
2023-03-30T19:34:17.384Z,5.0375
2023-03-30T19:37:17.848Z,4.9375
2023-03-30T19:41:18.040Z,4.987500000000001
2023-03-30T19:44:17.280Z,5.1625
2023-03-30T19:47:19.788Z,9.05
2023-03-30T19:51:19.423Z,6.875
2023-03-30T19:54:18.299Z,6.7125
2023-03-30T19:57:17.989Z,5.2375
2023-03-30T20:01:17.134Z,4.5875
2023-03-30T20:04:16.899Z,4.1875
2023-03-30T20:07:16.813Z,3.1375
2023-03-30T20:11:16.657Z,3.5124999999999997
2023-03-30T20:14:16.479Z,3.6624999999999996
2023-03-30T20:17:16.424Z,4.2625
2023-03-30T20:21:17.431Z,4.9625
2023-03-30T20:24:17.197Z,3.175
2023-03-30T20:27:17.330Z,3.7375
2023-03-30T20:31:17.360Z,3.0374999999999996
2023-03-30T20:34:19.055Z,4.575000000000001
2023-03-30T20:37:17.610Z,3.325
2023-03-30T20:41:17.477Z,3.4875
2023-03-30T20:44:18.892Z,4.1
2023-03-30T20:51:16.811Z,3.1
2023-03-30T20:54:17.846Z,7.05
2023-03-30T20:57:16.986Z,5.2875
2023-03-30T21:01:27.427Z,5.3125
2023-03-30T21:04:22.552Z,4.3
2023-03-30T21:07:25.283Z,4.4
2023-03-30T21:11:16.305Z,3.425
2023-03-30T21:14:16.913Z,4.225
2023-03-30T21:17:16.652Z,3.4749999999999996
2023-03-30T21:21:17.387Z,2.8125
2023-03-30T21:24:18.949Z,2.3625
2023-03-30T21:27:17.055Z,3.2875
2023-03-30T21:31:17.573Z,3.05
2023-03-30T21:34:19.129Z,3.25
2023-03-30T21:37:17.111Z,2.275
2023-03-30T21:41:19.373Z,3.1875
2023-03-30T21:44:17.204Z,2.6125
2023-03-30T21:47:17.011Z,2.6
2023-03-30T21:51:18.758Z,4.2625
2023-03-30T21:54:18.235Z,3.2125000000000004
2023-03-30T21:57:17.063Z,2.9000000000000004
2023-03-30T22:01:22.508Z,3.9124999999999996
2023-03-30T22:04:16.440Z,3.075
2023-03-30T22:07:16.806Z,2.525
2023-03-30T22:11:19.829Z,2.6
2023-03-30T22:14:17.262Z,3.2
2023-03-30T22:17:19.054Z,2.7125
2023-03-30T22:21:19.891Z,3.2874999999999996
2023-03-30T22:24:18.658Z,2.85
2023-03-30T22:27:17.161Z,2.325
2023-03-30T22:31:17.178Z,2.8125
2023-03-30T22:34:17.334Z,2.875
2023-03-30T22:37:17.222Z,2.275
2023-03-30T22:41:17.391Z,3.4375
2023-03-30T22:44:18.454Z,2.9875
2023-03-30T22:47:16.467Z,2.425
2023-03-30T22:51:23.822Z,3.0125
2023-03-30T22:54:17.571Z,3.4375
2023-03-30T22:57:16.608Z,3.5999999999999996
2023-03-30T23:01:16.877Z,3.925
2023-03-30T23:04:17.699Z,3.4000000000000004
2023-03-30T23:07:16.346Z,2.6125
2023-03-30T23:11:16.455Z,3.5875000000000004
2023-03-30T23:14:16.509Z,3.5625
2023-03-30T23:17:16.576Z,4
2023-03-30T23:21:17.245Z,3.8125
2023-03-30T23:24:17.213Z,3.925
2023-03-30T23:27:17.298Z,3.9625000000000004
2023-03-30T23:31:17.146Z,3.825
2023-03-30T23:34:17.252Z,3.25
2023-03-30T23:37:17.876Z,4.05
2023-03-30T23:41:18.632Z,3.7125
2023-03-30T23:44:16.902Z,3.1875
2023-03-30T23:47:17.519Z,3.375
2023-03-30T23:51:16.664Z,3.7625
2023-03-30T23:54:18.571Z,3.675
2023-03-30T23:57:16.901Z,3.8
